createdAt,value
2022-10-13T00:02:46.309Z,100487.81
2022-10-13T00:06:49.344Z,100488.69
2022-10-13T00:10:53.204Z,100485.16
2022-10-13T00:15:01.243Z,100487.81
2022-10-13T00:19:04.290Z,100480.75
2022-10-13T00:23:07.317Z,100486.94
2022-10-13T00:27:10.794Z,100486.06
2022-10-13T00:31:20.227Z,100486.06
2022-10-13T00:35:23.504Z,100478.09
2022-10-13T00:39:26.733Z,100486.03
2022-10-13T00:43:49.766Z,100478.97
2022-10-13T00:47:58.468Z,100473.69
2022-10-13T00:52:01.777Z,100476.34
2022-10-13T00:56:06.992Z,100466.63
2022-10-13T01:00:11.519Z,100467.50
2022-10-13T01:04:16.558Z,100467.53
2022-10-13T01:08:21.477Z,100465.78
2022-10-13T01:12:42.169Z,100460.50
2022-10-13T01:16:54.852Z,100468.41
2022-10-13T01:21:07.611Z,100461.41
2022-10-13T01:25:27.083Z,100454.31
2022-10-13T01:29:59.937Z,100442.88
2022-10-13T01:34:13.021Z,100439.31
2022-10-13T01:38:25.224Z,100448.13
2022-10-13T01:42:35.615Z,100441.97
2022-10-13T01:46:42.097Z,100441.97
2022-10-13T01:50:47.994Z,100434.94
2022-10-13T01:54:52.612Z,100436.66
2022-10-13T01:59:00.679Z,100430.53
2022-10-13T02:03:12.624Z,100431.41
2022-10-13T02:07:21.594Z,100422.59
2022-10-13T02:11:25.775Z,100425.22
2022-10-13T02:15:33.864Z,100426.09
2022-10-13T02:19:40.013Z,100429.66
2022-10-13T02:23:45.114Z,100430.50
2022-10-13T02:27:48.485Z,100419.06
2022-10-13T02:31:53.787Z,100420.81
2022-10-13T02:35:57.013Z,100425.22
2022-10-13T02:40:01.697Z,100423.44
2022-10-13T02:44:05.140Z,100426.09
2022-10-13T02:48:16.708Z,100427.00
2022-10-13T02:52:19.917Z,100423.47
2022-10-13T02:56:24.621Z,100425.22
2022-10-13T03:00:27.827Z,100417.31
2022-10-13T03:04:31.103Z,100420.81
2022-10-13T03:08:36.908Z,100419.09
2022-10-13T03:12:41.379Z,100422.59
2022-10-13T03:16:44.606Z,100416.41
2022-10-13T03:20:58.160Z,100420.84
2022-10-13T03:25:01.354Z,100413.78
2022-10-13T03:29:05.785Z,100415.53
2022-10-13T03:33:08.770Z,100412.00
2022-10-13T03:37:11.771Z,100416.41
2022-10-13T03:41:20.122Z,100413.78
2022-10-13T03:45:27.536Z,100408.50
2022-10-13T03:49:30.910Z,100412.00
2022-10-13T03:53:34.702Z,100410.25
2022-10-13T03:57:37.925Z,100413.78
2022-10-13T04:01:42.290Z,100417.31
2022-10-13T04:05:45.699Z,100410.25
2022-10-13T04:09:48.866Z,100415.53
2022-10-13T04:13:52.449Z,100410.25
2022-10-13T04:17:57.039Z,100405.84
2022-10-13T04:22:00.214Z,100411.13
2022-10-13T04:26:03.659Z,100414.66
2022-10-13T04:30:08.244Z,100414.66
2022-10-13T04:34:13.510Z,100417.28
2022-10-13T04:38:16.742Z,100432.31
2022-10-13T04:42:20.068Z,100422.59
2022-10-13T04:46:26.672Z,100425.25
2022-10-13T04:50:33.690Z,100422.59
2022-10-13T04:54:36.766Z,100427.03
2022-10-13T04:58:40.780Z,100431.41
2022-10-13T05:02:43.846Z,100418.19
2022-10-13T05:07:16.074Z,100422.59
2022-10-13T05:11:11.895Z,100417.31
2022-10-13T05:15:16.991Z,100419.97
2022-10-13T05:19:20.283Z,100422.59
2022-10-13T05:23:26.799Z,100427.88
2022-10-13T05:27:29.669Z,100429.66
2022-10-13T05:31:34.368Z,100426.13
2022-10-13T05:35:37.470Z,100418.19
2022-10-13T05:39:41.974Z,100421.72
2022-10-13T05:43:44.901Z,100430.53
2022-10-13T05:47:47.996Z,100434.06
2022-10-13T05:51:56.530Z,100434.97
2022-10-13T05:56:07.075Z,100436.69
2022-10-13T06:00:12.880Z,100435.81
2022-10-13T06:04:20.707Z,100435.84
2022-10-13T06:08:24.096Z,100446.44
2022-10-13T06:12:29.178Z,100451.72
2022-10-13T06:16:32.382Z,100452.59
2022-10-13T06:20:35.648Z,100456.13
2022-10-13T06:24:38.866Z,100449.06
2022-10-13T06:28:49.807Z,100445.56
2022-10-13T06:32:55.261Z,100455.25
2022-10-13T06:36:58.547Z,100445.56
2022-10-13T06:41:02.215Z,100451.72
2022-10-13T06:45:10.783Z,100445.53
2022-10-13T06:49:16.656Z,100449.06
2022-10-13T06:53:19.735Z,100456.13
2022-10-13T06:57:22.773Z,100453.50
2022-10-13T07:01:27.235Z,100449.94
2022-10-13T07:05:30.555Z,100447.28
2022-10-13T07:09:33.775Z,100440.25
2022-10-13T07:13:40.065Z,100438.47
2022-10-13T07:17:46.536Z,100445.56
2022-10-13T07:21:49.831Z,100447.28
2022-10-13T07:25:53.127Z,100447.31
2022-10-13T07:29:56.333Z,100448.19
2022-10-13T07:34:01.180Z,100449.06
2022-10-13T07:38:04.672Z,100434.91
2022-10-13T07:42:07.658Z,100438.44
2022-10-13T07:46:13.246Z,100434.97
2022-10-13T07:50:18.179Z,100436.69
2022-10-13T07:54:23.774Z,100436.69
2022-10-13T07:58:30.018Z,100440.22
2022-10-13T08:02:33.350Z,100441.13
2022-10-13T08:10:44.893Z,100438.47
2022-10-13T08:14:51.572Z,100437.56
2022-10-13T08:18:54.995Z,100425.19
2022-10-13T08:22:59.436Z,100436.66
2022-10-13T08:27:02.676Z,100429.63
2022-10-13T08:31:06.093Z,100435.75
2022-10-13T08:35:10.522Z,100433.13
2022-10-13T08:39:15.113Z,100427.81
2022-10-13T08:43:20.532Z,100438.41
2022-10-13T08:47:34.283Z,100437.50
2022-10-13T08:51:37.461Z,100436.63
2022-10-13T08:55:45.537Z,100436.63
2022-10-13T08:59:49.349Z,100438.38
2022-10-13T09:03:54.709Z,100442.75
2022-10-13T09:08:00.194Z,100433.06
2022-10-13T09:12:05.377Z,100433.03
2022-10-13T09:16:09.186Z,100426.84
2022-10-13T09:20:21.106Z,100424.13
2022-10-13T09:24:25.971Z,100432.94
2022-10-13T09:28:31.993Z,100432.94
2022-10-13T09:32:37.084Z,100424.06
2022-10-13T09:36:41.721Z,100428.50
2022-10-13T09:40:56.868Z,100420.56
2022-10-13T09:45:03.911Z,100426.72
2022-10-13T09:49:22.446Z,100423.13
2022-10-13T09:53:31.240Z,100423.13
2022-10-13T09:57:42.585Z,100414.25
2022-10-13T10:01:50.927Z,100415.09
2022-10-13T10:05:56.262Z,100412.44
2022-10-13T10:10:04.935Z,100415.13
2022-10-13T10:14:16.965Z,100418.69
2022-10-13T10:18:31.031Z,100416.03
2022-10-13T10:22:40.032Z,100405.41
2022-10-13T10:26:52.873Z,100410.66
2022-10-13T10:31:03.087Z,100408.84
2022-10-13T10:35:13.828Z,100407.06
2022-10-13T10:39:30.624Z,100402.59
2022-10-13T10:43:46.968Z,100409.63
2022-10-13T10:47:57.787Z,100403.41
2022-10-13T10:52:09.377Z,100394.59
2022-10-13T10:56:23.940Z,100396.34
2022-10-13T11:00:30.436Z,100395.41
2022-10-13T11:04:42.628Z,100386.59
2022-10-13T11:08:49.174Z,100385.66
2022-10-13T11:13:22.340Z,100384.72
2022-10-13T11:17:29.538Z,100366.13
2022-10-13T11:22:06.337Z,100382.97
2022-10-13T11:26:31.198Z,100367.00
2022-10-13T11:30:50.210Z,100358.97
2022-10-13T11:34:59.303Z,100356.28
2022-10-13T11:39:16.610Z,100352.66
2022-10-13T11:43:43.126Z,100342.88
2022-10-13T11:48:30.867Z,100328.69
2022-10-13T11:53:01.140Z,100318.06
2022-10-13T11:57:05.871Z,100313.53
2022-10-13T12:01:15.842Z,100312.66
2022-10-13T12:05:23.566Z,100301.94
2022-10-13T12:09:27.142Z,100301.06
2022-10-13T12:13:32.309Z,100293.06
2022-10-13T12:17:38.957Z,100285.13
2022-10-13T12:21:51.207Z,100272.63
2022-10-13T12:25:58.409Z,100269.00
2022-10-13T12:30:02.111Z,100268.06
2022-10-13T12:34:23.789Z,100265.34
2022-10-13T12:38:27.060Z,100269.78
2022-10-13T12:42:32.690Z,100259.94
2022-10-13T12:46:41.729Z,100267.88
2022-10-13T12:50:46.182Z,100262.56
2022-10-13T12:54:51.635Z,100263.47
2022-10-13T12:58:56.623Z,100256.38
2022-10-13T13:03:01.381Z,100254.56
2022-10-13T13:07:22.893Z,100256.38
2022-10-13T13:11:35.575Z,100247.44
2022-10-13T13:15:41.566Z,100244.75
2022-10-13T13:19:47.196Z,100235.84
2022-10-13T13:23:53.989Z,100236.75
2022-10-13T13:27:57.465Z,100243.81
2022-10-13T13:32:00.461Z,100233.13
2022-10-13T13:36:03.956Z,100230.41
2022-10-13T13:40:15.159Z,100229.47
2022-10-13T13:44:18.280Z,100222.31
2022-10-13T13:48:24.445Z,100217.00
2022-10-13T13:52:27.540Z,100217.13
2022-10-13T13:56:32.121Z,100203.00
2022-10-13T14:00:35.383Z,100218.06
2022-10-13T14:04:38.526Z,100216.31
2022-10-13T14:08:43.198Z,100210.19
2022-10-13T14:12:47.809Z,100212.03
2022-10-13T14:16:50.966Z,100201.41
2022-10-13T14:20:54.362Z,100201.44
2022-10-13T14:24:57.313Z,100203.22
2022-10-13T14:29:01.678Z,100193.47
2022-10-13T14:33:05.018Z,100192.59
2022-10-13T14:37:08.494Z,100181.97
2022-10-13T14:41:11.458Z,100181.97
2022-10-13T14:45:16.791Z,100175.72
2022-10-13T14:49:19.766Z,100189.91
2022-10-13T14:53:26.637Z,100171.34
2022-10-13T14:57:29.612Z,100170.50
2022-10-13T15:01:34.675Z,100172.31
2022-10-13T15:05:37.722Z,100164.44
2022-10-13T15:09:52.981Z,100164.50
2022-10-13T15:14:04.478Z,100164.50
2022-10-13T15:18:09.052Z,100170.69
2022-10-13T15:22:12.121Z,100166.34
2022-10-13T15:26:17.681Z,100162.00
2022-10-13T15:30:20.867Z,100165.59
2022-10-13T15:34:25.212Z,100152.38
2022-10-13T15:38:28.384Z,100159.56
2022-10-13T15:42:31.488Z,100152.63
2022-10-13T15:46:34.697Z,100152.78
2022-10-13T15:50:41.119Z,100158.19
2022-10-13T15:54:44.433Z,100159.19
2022-10-13T15:58:48.000Z,100154.84
2022-10-13T16:02:52.513Z,100159.41
2022-10-13T16:06:56.948Z,100148.84
2022-10-13T16:11:02.305Z,100147.16
2022-10-13T16:15:05.912Z,100146.34
2022-10-13T16:19:09.129Z,100145.50
2022-10-13T16:23:13.670Z,100157.06
2022-10-13T16:27:17.146Z,100144.69
2022-10-13T16:31:20.160Z,100150.06
2022-10-13T16:35:23.131Z,100150.06
2022-10-13T16:39:28.465Z,100147.41
2022-10-13T16:43:31.619Z,100150.94
2022-10-13T16:47:34.875Z,100146.56
2022-10-13T16:51:37.867Z,100150.13
2022-10-13T16:55:42.479Z,100149.28
2022-10-13T16:59:45.623Z,100157.28
2022-10-13T17:03:50.307Z,100162.63
2022-10-13T17:07:53.511Z,100153.84
2022-10-13T17:11:57.864Z,100163.59
2022-10-13T17:16:01.263Z,100156.56
2022-10-13T17:20:05.288Z,100159.25
2022-10-13T17:24:08.696Z,100152.22
2022-10-13T17:28:13.189Z,100154.00
2022-10-13T17:32:16.405Z,100161.97
2022-10-13T17:36:21.039Z,100146.09
2022-10-13T17:40:24.274Z,100157.63
2022-10-13T17:44:28.770Z,100159.41
2022-10-13T17:48:31.904Z,100155.00
2022-10-13T17:52:35.064Z,100155.94
2022-10-13T17:56:38.469Z,100149.75
2022-10-13T18:01:08.082Z,100150.69
2022-10-13T18:05:06.750Z,100148.09
2022-10-13T18:09:12.746Z,100144.59
2022-10-13T18:13:16.267Z,100140.22
2022-10-13T18:17:21.319Z,100139.38
2022-10-13T18:21:26.900Z,100131.44
2022-10-13T18:25:29.930Z,100138.53
2022-10-13T18:29:33.380Z,100132.38
2022-10-13T18:33:38.074Z,100141.22
2022-10-13T18:37:41.097Z,100143.00
2022-10-13T18:41:44.962Z,100147.44
2022-10-13T18:45:48.010Z,100145.69
2022-10-13T18:49:52.743Z,100148.34
2022-10-13T18:53:55.822Z,100156.28
2022-10-13T18:58:00.462Z,100150.13
2022-10-13T19:02:03.440Z,100149.25
2022-10-13T19:06:10.343Z,100159.84
2022-10-13T19:10:17.208Z,100143.09
2022-10-13T19:14:20.735Z,100137.84
2022-10-13T19:18:23.943Z,100135.22
2022-10-13T19:22:28.857Z,100146.66
2022-10-13T19:26:33.875Z,100134.34
2022-10-13T19:30:37.206Z,100146.66
2022-10-13T19:34:41.090Z,100145.78
2022-10-13T19:38:50.275Z,100147.56
2022-10-13T19:42:53.664Z,100139.63
2022-10-13T19:46:57.056Z,100141.41
2022-10-13T19:51:01.667Z,100137.88
2022-10-13T19:55:07.010Z,100132.59
2022-10-13T19:59:10.266Z,100126.41
2022-10-13T20:03:14.190Z,100117.59
2022-10-13T20:07:22.389Z,100119.38
2022-10-13T20:11:27.377Z,100116.72
2022-10-13T20:15:30.433Z,100115.81
2022-10-13T20:19:38.373Z,100119.38
2022-10-13T20:23:42.102Z,100112.31
2022-10-13T20:27:46.788Z,100118.50
2022-10-13T20:31:50.165Z,100114.09
2022-10-13T20:35:55.523Z,100115.84
2022-10-13T20:39:58.738Z,100110.56
2022-10-13T20:44:03.768Z,100118.50
2022-10-13T20:48:09.392Z,100118.50
2022-10-13T20:52:12.500Z,100114.94
2022-10-13T20:56:18.217Z,100110.56
2022-10-13T21:00:22.869Z,100108.78
2022-10-13T21:04:26.456Z,100116.72
2022-10-13T21:08:30.660Z,100117.63
2022-10-13T21:12:34.054Z,100107.03
2022-10-13T21:16:39.494Z,100104.41
2022-10-13T21:20:44.795Z,100103.53
2022-10-13T21:24:47.743Z,100103.53
2022-10-13T21:28:52.019Z,100092.97
2022-10-13T21:32:56.603Z,100088.53
2022-10-13T21:36:59.678Z,100092.97
2022-10-13T21:41:05.143Z,100089.41
2022-10-13T21:45:09.933Z,100090.31
2022-10-13T21:49:14.540Z,100082.38
2022-10-13T21:53:17.665Z,100092.97
2022-10-13T21:57:22.298Z,100082.38
2022-10-13T22:01:26.246Z,100092.94
2022-10-13T22:05:30.882Z,100085.94
2022-10-13T22:09:34.044Z,100081.50
2022-10-13T22:13:38.145Z,100071.84
2022-10-13T22:17:41.472Z,100066.56
2022-10-13T22:21:47.850Z,100066.56
2022-10-13T22:25:51.419Z,100064.81
2022-10-13T22:29:54.808Z,100061.25
2022-10-13T22:33:57.891Z,100056.00
2022-10-13T22:38:02.252Z,100058.66
2022-10-13T22:42:05.507Z,100072.72
2022-10-13T22:46:10.725Z,100070.97
2022-10-13T22:50:13.917Z,100063.91
2022-10-13T22:54:18.531Z,100071.88
2022-10-13T22:58:22.024Z,100062.16
2022-10-13T23:02:26.106Z,100058.66
2022-10-13T23:06:31.268Z,100060.41
2022-10-13T23:10:37.477Z,100068.34
2022-10-13T23:14:40.503Z,100062.19
2022-10-13T23:18:43.934Z,100058.66
2022-10-13T23:23:05.034Z,100054.25
2022-10-13T23:27:09.810Z,100051.63
2022-10-13T23:31:14.569Z,100054.25
2022-10-13T23:35:17.786Z,100044.56
2022-10-13T23:39:21.186Z,100050.75
2022-10-13T23:43:25.707Z,100049.84
2022-10-13T23:47:28.806Z,100052.50
2022-10-13T23:51:31.993Z,100050.72
2022-10-13T23:55:38.616Z,100053.34
2022-10-13T23:59:43.028Z,100048.06
